Alderson, Oklahoma
Current Conditions -  °F | °C
As of 6:53 AM on Sunday 21 Dec 2014 (Local Time) from KMLC Reporting Station
Overcast Overcast  
Wind Chill: 42°   Ceiling: 1200
Heat Index: 46°   Visibility: 8mi
Dew Point: 42°   Wind: 7mph
Humidity: 86%   Direction: 170°S
Pressure: 30.11"   Gusts: NA
Location:  34.9°N, 95.69°W
Report Text: KMLC 211253Z AUTO 17006KT 8SM BKN012 BKN033 OVC085 08/06 A3011 RMK AO2 SLP195 T00780056
Loading
Personal Weather Stations






























Interactive Weather Map New forecast layout! Learn more

10-Day Weather Forecast

Advertisements
Track Severe Weather on mobile